createdAt,value
2018-05-11T00:01:00.093Z,11.90
2018-05-11T00:03:30.401Z,11.90
2018-05-11T00:06:00.823Z,11.90
2018-05-11T00:08:37.114Z,11.90
2018-05-11T00:11:07.310Z,12.00
2018-05-11T00:13:38.824Z,11.90
2018-05-11T00:16:10.492Z,11.90
2018-05-11T00:18:40.677Z,11.90
2018-05-11T00:21:10.954Z,11.80
2018-05-11T00:23:41.142Z,11.80
2018-05-11T00:26:11.394Z,11.80
2018-05-11T00:28:41.673Z,11.80
2018-05-11T00:31:11.989Z,11.80
2018-05-11T00:33:43.658Z,11.70
2018-05-11T00:36:13.960Z,11.70
2018-05-11T00:38:44.214Z,11.60
2018-05-11T00:41:15.150Z,11.60
2018-05-11T00:43:49.650Z,11.60
2018-05-11T00:46:19.946Z,11.60
2018-05-11T00:48:50.153Z,11.60
2018-05-11T00:51:20.364Z,11.60
2018-05-11T00:53:50.602Z,11.60
2018-05-11T00:56:20.942Z,11.60
2018-05-11T00:59:09.643Z,11.50
2018-05-11T01:01:39.926Z,11.50
2018-05-11T01:04:10.155Z,11.50
2018-05-11T01:06:41.134Z,11.60
2018-05-11T01:09:11.264Z,11.50
2018-05-11T01:11:41.520Z,11.60
2018-05-11T01:14:11.644Z,11.60
2018-05-11T01:16:42.915Z,11.60
2018-05-11T01:19:13.107Z,11.60
2018-05-11T01:21:43.330Z,11.60
2018-05-11T01:24:13.504Z,11.60
2018-05-11T01:26:43.790Z,11.60
2018-05-11T01:29:14.040Z,11.60
2018-05-11T01:31:44.309Z,11.50
2018-05-11T01:34:14.434Z,11.50
2018-05-11T01:36:44.864Z,11.50
2018-05-11T01:39:15.069Z,11.40
2018-05-11T01:41:48.364Z,11.40
2018-05-11T01:44:18.555Z,11.40
2018-05-11T01:46:48.843Z,11.30
2018-05-11T01:49:21.405Z,11.40
2018-05-11T01:51:51.637Z,11.40
2018-05-11T01:54:21.805Z,11.40
2018-05-11T01:57:01.163Z,11.40
2018-05-11T01:59:31.446Z,11.30
2018-05-11T02:02:02.747Z,11.40
2018-05-11T02:04:38.473Z,11.30
2018-05-11T02:07:08.973Z,11.30
2018-05-11T02:09:39.172Z,11.30
2018-05-11T02:12:09.344Z,11.20
2018-05-11T02:14:39.739Z,11.30
2018-05-11T02:17:11.481Z,11.20
2018-05-11T02:19:42.446Z,11.30
2018-05-11T02:22:12.828Z,11.20
2018-05-11T02:24:45.502Z,11.30
2018-05-11T02:27:16.421Z,11.30
2018-05-11T02:29:46.609Z,11.40
2018-05-11T02:32:20.554Z,11.30
2018-05-11T02:34:51.785Z,11.30
2018-05-11T02:37:22.463Z,11.30
2018-05-11T02:39:52.753Z,11.30
2018-05-11T02:42:23.072Z,11.30
2018-05-11T02:44:53.295Z,11.30
2018-05-11T02:47:28.022Z,11.30
2018-05-11T02:49:58.625Z,11.20
2018-05-11T02:52:28.780Z,11.30
2018-05-11T02:55:02.190Z,11.30
2018-05-11T02:57:32.761Z,11.30
2018-05-11T03:00:03.474Z,11.30
2018-05-11T03:02:33.654Z,11.30
2018-05-11T03:05:04.713Z,11.40
2018-05-11T03:07:35.294Z,11.40
2018-05-11T03:10:05.545Z,11.40
2018-05-11T03:12:37.156Z,11.40
2018-05-11T03:15:07.942Z,11.40
2018-05-11T03:17:38.280Z,11.50
2018-05-11T03:20:08.482Z,11.50
2018-05-11T03:22:46.033Z,11.40
2018-05-11T03:25:16.298Z,11.40
2018-05-11T03:27:47.287Z,11.50
2018-05-11T03:30:17.552Z,11.50
2018-05-11T03:32:49.785Z,11.50
2018-05-11T03:35:20.061Z,11.60
2018-05-11T03:37:51.297Z,11.60
2018-05-11T03:40:21.510Z,11.60
2018-05-11T03:42:51.780Z,11.60
2018-05-11T03:45:21.964Z,11.60
2018-05-11T03:47:52.171Z,11.60
2018-05-11T03:50:22.318Z,11.60
2018-05-11T03:52:52.522Z,11.60
2018-05-11T03:55:22.745Z,11.60
2018-05-11T03:57:54.426Z,11.70
2018-05-11T04:00:24.765Z,11.70
2018-05-11T04:06:21.941Z,11.70
2018-05-11T04:08:52.155Z,11.70
2018-05-11T04:11:22.336Z,11.70
2018-05-11T04:13:53.075Z,11.80
2018-05-11T04:16:23.281Z,11.90
2018-05-11T04:18:53.680Z,11.90
2018-05-11T04:21:23.873Z,11.90
2018-05-11T04:23:54.192Z,11.90
2018-05-11T04:26:24.429Z,11.90
2018-05-11T04:28:54.726Z,11.90
2018-05-11T04:31:25.459Z,11.90
2018-05-11T04:33:55.784Z,12.00
2018-05-11T04:36:26.881Z,12.00
2018-05-11T04:38:57.135Z,12.00
2018-05-11T04:41:28.279Z,11.90
2018-05-11T04:43:58.637Z,11.90
2018-05-11T04:46:29.209Z,11.90
2018-05-11T04:49:00.363Z,11.90
2018-05-11T04:51:30.625Z,11.90
2018-05-11T04:54:00.973Z,11.90
2018-05-11T04:56:31.490Z,11.90
2018-05-11T04:59:04.845Z,11.90
2018-05-11T05:01:35.662Z,12.00
2018-05-11T05:04:06.417Z,12.00
2018-05-11T05:06:37.489Z,12.00
2018-05-11T05:09:08.125Z,12.00
2018-05-11T05:11:38.350Z,12.00
2018-05-11T05:14:08.722Z,12.10
2018-05-11T05:16:39.101Z,12.10
2018-05-11T05:19:09.483Z,12.10
2018-05-11T05:21:39.921Z,12.10
2018-05-11T05:24:10.761Z,12.10
2018-05-11T05:26:41.035Z,12.20
2018-05-11T05:29:11.991Z,12.30
2018-05-11T05:31:42.257Z,12.40
2018-05-11T05:34:13.412Z,12.40
2018-05-11T05:36:44.426Z,12.50
2018-05-11T05:39:17.274Z,12.50
2018-05-11T05:41:47.905Z,12.60
2018-05-11T05:44:18.729Z,12.70
2018-05-11T05:46:48.972Z,12.70
2018-05-11T05:49:19.570Z,12.70
2018-05-11T05:51:50.316Z,12.70
2018-05-11T05:54:21.492Z,12.70
2018-05-11T05:56:51.750Z,12.60
2018-05-11T05:59:22.916Z,12.60
2018-05-11T06:01:53.272Z,12.60
2018-05-11T06:04:23.600Z,12.60
2018-05-11T06:06:53.929Z,12.60
2018-05-11T06:09:24.597Z,12.60
2018-05-11T06:11:55.414Z,12.70
2018-05-11T06:14:26.157Z,12.70
2018-05-11T06:17:07.518Z,12.40
2018-05-11T06:19:44.590Z,12.40
2018-05-11T06:22:19.073Z,12.50
2018-05-11T06:24:59.312Z,12.70
2018-05-11T06:27:34.650Z,12.70
2018-05-11T06:30:10.041Z,12.70
2018-05-11T06:32:42.645Z,13.00
2018-05-11T06:35:13.917Z,13.00
2018-05-11T06:37:46.452Z,13.10
2018-05-11T06:40:18.360Z,13.30
2018-05-11T06:42:52.566Z,13.30
2018-05-11T06:45:22.736Z,13.30
2018-05-11T06:47:53.069Z,13.30
2018-05-11T06:50:23.360Z,13.30
2018-05-11T06:52:54.393Z,13.50
2018-05-11T06:55:24.743Z,13.50
2018-05-11T06:57:57.133Z,13.70
2018-05-11T07:00:28.261Z,13.70
2018-05-11T07:02:58.437Z,13.70
2018-05-11T07:05:28.669Z,13.70
2018-05-11T07:07:59.034Z,13.70
2018-05-11T07:10:29.208Z,13.60
2018-05-11T07:12:59.408Z,13.50
2018-05-11T07:15:29.586Z,13.50
2018-05-11T07:17:59.850Z,13.60
2018-05-11T07:20:30.887Z,13.90
2018-05-11T07:23:01.163Z,13.90
2018-05-11T07:25:31.369Z,14.00
2018-05-11T07:28:01.724Z,14.10
2018-05-11T07:30:31.994Z,14.20
2018-05-11T07:33:02.199Z,14.10
2018-05-11T07:35:33.139Z,14.40
2018-05-11T07:38:03.364Z,14.40
2018-05-11T07:40:33.570Z,14.30
2018-05-11T07:43:11.104Z,14.30
2018-05-11T07:45:41.345Z,14.40
2018-05-11T07:48:11.596Z,14.50
2018-05-11T07:50:41.790Z,14.60
2018-05-11T07:53:12.757Z,14.70
2018-05-11T07:55:43.249Z,14.70
2018-05-11T07:58:14.279Z,15.10
2018-05-11T08:00:44.539Z,15.00
2018-05-11T08:03:14.738Z,15.40
2018-05-11T08:05:45.675Z,15.90
2018-05-11T08:08:15.919Z,15.80
2018-05-11T08:10:46.924Z,15.70
2018-05-11T08:13:17.136Z,15.70
2018-05-11T08:15:47.352Z,15.40
2018-05-11T08:18:17.619Z,15.10
2018-05-11T08:20:50.159Z,14.70
2018-05-11T08:23:20.688Z,14.40
2018-05-11T08:25:50.897Z,14.40
2018-05-11T08:28:21.133Z,14.70
2018-05-11T08:30:52.658Z,14.90
2018-05-11T08:33:23.009Z,15.10
2018-05-11T08:35:53.410Z,15.20
2018-05-11T08:38:23.546Z,14.90
2018-05-11T08:40:53.741Z,14.80
2018-05-11T08:43:24.470Z,14.90
2018-05-11T08:45:54.749Z,15.00
2018-05-11T08:48:25.730Z,15.30
2018-05-11T08:50:59.734Z,15.30
2018-05-11T08:53:30.036Z,15.90
2018-05-11T08:56:00.307Z,16.50
2018-05-11T08:58:31.168Z,17.00
2018-05-11T09:01:01.380Z,17.20
2018-05-11T09:03:31.601Z,17.30
2018-05-11T09:06:05.760Z,16.80
2018-05-11T09:08:36.009Z,16.40
2018-05-11T09:11:06.213Z,16.20
2018-05-11T09:13:36.454Z,16.20
2018-05-11T09:16:07.560Z,16.50
2018-05-11T09:18:37.769Z,16.50
2018-05-11T09:21:08.145Z,16.80
2018-05-11T09:23:38.449Z,17.00
2018-05-11T09:26:09.063Z,17.00
2018-05-11T09:28:40.443Z,16.90
2018-05-11T09:31:11.008Z,16.90
2018-05-11T09:33:41.311Z,17.20
2018-05-11T09:36:11.581Z,17.30
2018-05-11T09:38:44.376Z,17.50
2018-05-11T09:41:14.616Z,17.50
2018-05-11T09:43:44.878Z,17.60
2018-05-11T09:46:15.106Z,17.80
2018-05-11T09:48:45.312Z,17.60
2018-05-11T09:51:16.454Z,16.90
2018-05-11T09:53:46.625Z,16.90
2018-05-11T09:56:16.900Z,16.90
2018-05-11T09:58:47.176Z,17.30
2018-05-11T10:01:17.353Z,17.50
2018-05-11T10:03:47.619Z,17.60
2018-05-11T10:06:17.774Z,17.70
2018-05-11T10:08:48.374Z,17.90
2018-05-11T10:11:18.746Z,17.90
2018-05-11T10:13:49.189Z,17.80
2018-05-11T10:16:19.810Z,17.80
2018-05-11T10:18:49.997Z,17.90
2018-05-11T10:21:20.396Z,17.90
2018-05-11T10:23:51.081Z,17.90
2018-05-11T10:26:21.345Z,17.90
2018-05-11T10:28:51.711Z,18.00
2018-05-11T10:31:23.432Z,17.90
2018-05-11T10:33:53.749Z,17.90
2018-05-11T10:36:24.006Z,17.90
2018-05-11T10:38:54.201Z,17.90
2018-05-11T10:41:25.169Z,17.90
2018-05-11T10:43:55.492Z,17.80
2018-05-11T10:46:25.873Z,17.90
2018-05-11T10:48:56.062Z,18.00
2018-05-11T10:51:27.434Z,18.10
2018-05-11T10:53:57.702Z,18.10
2018-05-11T10:56:28.662Z,18.20
2018-05-11T10:58:58.896Z,18.20
2018-05-11T11:01:29.925Z,17.90
2018-05-11T11:04:00.294Z,17.90
2018-05-11T11:06:30.486Z,17.20
2018-05-11T11:09:00.640Z,16.90
2018-05-11T11:11:31.625Z,17.00
2018-05-11T11:14:02.070Z,17.00
2018-05-11T11:16:32.320Z,17.20
2018-05-11T11:19:03.119Z,17.50
2018-05-11T11:21:33.357Z,17.80
2018-05-11T11:24:03.614Z,18.10
2018-05-11T11:26:33.994Z,18.30
2018-05-11T11:29:04.313Z,18.30
2018-05-11T11:31:34.581Z,18.20
2018-05-11T11:34:04.821Z,18.40
2018-05-11T11:36:35.901Z,18.20
2018-05-11T11:39:06.430Z,18.20
2018-05-11T11:41:36.761Z,18.10
2018-05-11T11:44:07.400Z,18.40
2018-05-11T11:46:37.721Z,18.10
2018-05-11T11:49:07.985Z,18.00
2018-05-11T11:51:39.199Z,18.00
2018-05-11T11:54:09.789Z,18.20
2018-05-11T11:56:51.674Z,18.40
2018-05-11T11:59:22.366Z,18.90
2018-05-11T12:01:52.693Z,19.20
2018-05-11T12:04:23.759Z,19.80
2018-05-11T12:06:54.104Z,19.80
2018-05-11T12:09:31.474Z,19.80
2018-05-11T12:12:01.743Z,19.70
2018-05-11T12:14:32.102Z,18.90
2018-05-11T12:17:02.678Z,19.20
2018-05-11T12:19:33.055Z,19.90
2018-05-11T12:22:04.164Z,19.50
2018-05-11T12:24:34.536Z,19.50
2018-05-11T12:27:04.931Z,19.80
2018-05-11T12:29:35.170Z,20.30
2018-05-11T12:32:05.474Z,20.50
2018-05-11T12:34:35.875Z,20.00
2018-05-11T12:37:06.165Z,20.20
2018-05-11T12:39:36.617Z,20.20
2018-05-11T12:42:06.888Z,20.70
2018-05-11T12:44:37.271Z,20.40
2018-05-11T12:47:07.549Z,20.80
2018-05-11T12:49:38.679Z,21.70
2018-05-11T12:52:09.005Z,21.60
2018-05-11T12:54:39.533Z,21.50
2018-05-11T12:57:09.765Z,21.80
2018-05-11T12:59:39.955Z,22.40
2018-05-11T13:02:10.116Z,22.50
2018-05-11T13:04:40.801Z,22.10
2018-05-11T13:07:11.147Z,22.80
2018-05-11T13:09:41.393Z,23.40
2018-05-11T13:12:11.660Z,23.60
2018-05-11T13:14:42.240Z,23.50
2018-05-11T13:17:17.582Z,22.90
2018-05-11T13:19:48.571Z,22.60
2018-05-11T13:22:18.879Z,22.60
2018-05-11T13:24:49.249Z,22.90
2018-05-11T13:27:19.561Z,22.50
2018-05-11T13:29:49.802Z,23.20
2018-05-11T13:32:20.217Z,23.60
2018-05-11T13:34:50.535Z,22.90
2018-05-11T13:37:20.840Z,23.30
2018-05-11T13:39:53.525Z,23.70
2018-05-11T13:42:24.071Z,23.70
2018-05-11T13:44:54.394Z,23.90
2018-05-11T13:47:25.822Z,24.00
2018-05-11T13:49:56.033Z,23.40
2018-05-11T13:52:26.349Z,22.90
2018-05-11T13:54:57.434Z,22.20
2018-05-11T13:57:27.714Z,22.20
2018-05-11T13:59:58.697Z,22.00
2018-05-11T14:02:29.743Z,21.70
2018-05-11T14:05:00.047Z,21.70
2018-05-11T14:07:30.256Z,21.80
2018-05-11T14:10:00.560Z,22.20
2018-05-11T14:12:30.783Z,21.80
2018-05-11T14:15:01.043Z,22.00
2018-05-11T14:17:31.495Z,21.60
2018-05-11T14:20:01.821Z,21.20
2018-05-11T14:22:33.367Z,21.70
2018-05-11T14:25:03.578Z,21.60
2018-05-11T14:27:33.822Z,21.40
2018-05-11T14:30:05.534Z,21.90
2018-05-11T14:32:36.082Z,22.10
2018-05-11T14:35:06.373Z,22.30
2018-05-11T14:37:36.936Z,22.40
2018-05-11T14:40:07.320Z,22.90
2018-05-11T14:42:38.256Z,21.20
2018-05-11T14:45:09.306Z,19.80
2018-05-11T14:47:39.508Z,19.80
2018-05-11T14:50:09.737Z,20.20
2018-05-11T14:52:41.289Z,20.40
2018-05-11T14:55:11.462Z,20.20
2018-05-11T14:57:41.855Z,20.20
2018-05-11T15:00:12.161Z,20.10
2018-05-11T15:02:42.645Z,20.20
2018-05-11T15:05:12.874Z,20.10
2018-05-11T15:07:43.080Z,19.90
2018-05-11T15:10:13.314Z,20.20
2018-05-11T15:12:43.577Z,20.50
2018-05-11T15:15:13.853Z,20.70
2018-05-11T15:17:45.608Z,20.80
2018-05-11T15:20:16.260Z,21.10
2018-05-11T15:22:46.474Z,21.30
2018-05-11T15:25:16.792Z,21.40
2018-05-11T15:27:46.995Z,21.40
2018-05-11T15:30:17.419Z,21.30
2018-05-11T15:32:47.613Z,21.30
2018-05-11T15:35:17.946Z,21.20
2018-05-11T15:37:48.290Z,21.10
2018-05-11T15:40:18.694Z,21.00
2018-05-11T15:42:49.781Z,20.80
2018-05-11T15:45:20.313Z,20.80
2018-05-11T15:47:50.533Z,20.90
2018-05-11T15:50:20.806Z,21.30
2018-05-11T15:52:51.020Z,21.60
2018-05-11T15:55:21.329Z,21.70
2018-05-11T15:57:51.550Z,21.90
2018-05-11T16:00:21.810Z,21.90
2018-05-11T16:02:52.142Z,21.60
2018-05-11T16:05:22.522Z,21.50
2018-05-11T16:07:53.005Z,21.30
2018-05-11T16:10:23.960Z,20.40
2018-05-11T16:12:54.271Z,20.40
2018-05-11T16:15:24.601Z,20.40
2018-05-11T16:17:54.835Z,20.40
2018-05-11T16:20:25.094Z,20.30
2018-05-11T16:22:55.440Z,20.30
2018-05-11T16:25:25.666Z,20.50
2018-05-11T16:27:56.066Z,20.70
2018-05-11T16:30:26.373Z,20.40
2018-05-11T16:32:57.129Z,19.70
2018-05-11T16:35:27.514Z,19.80
2018-05-11T16:37:57.768Z,19.80
2018-05-11T16:40:28.045Z,20.10
2018-05-11T16:42:58.330Z,20.30
2018-05-11T16:45:28.927Z,20.50
2018-05-11T16:47:59.183Z,20.60
2018-05-11T16:50:29.408Z,20.50
2018-05-11T16:52:59.623Z,20.50
2018-05-11T16:55:32.081Z,20.50
2018-05-11T16:58:02.342Z,20.50
2018-05-11T17:00:32.517Z,20.60
2018-05-11T17:03:02.733Z,20.60
2018-05-11T17:05:32.925Z,20.70
2018-05-11T17:08:03.163Z,20.60
2018-05-11T17:10:33.804Z,20.50
2018-05-11T17:13:03.967Z,20.20
2018-05-11T17:15:34.968Z,19.60
2018-05-11T17:18:05.171Z,19.50
2018-05-11T17:20:35.395Z,19.00
2018-05-11T17:23:05.794Z,18.90
2018-05-11T17:25:36.025Z,19.00
2018-05-11T17:28:06.265Z,19.10
2018-05-11T17:30:36.503Z,19.10
2018-05-11T17:33:06.773Z,19.00
2018-05-11T17:35:37.061Z,19.10
2018-05-11T17:38:07.850Z,19.10
2018-05-11T17:40:38.938Z,18.90
2018-05-11T17:43:09.209Z,18.90
2018-05-11T17:45:39.736Z,18.70
2018-05-11T17:48:10.767Z,18.80
2018-05-11T17:50:41.058Z,18.70
2018-05-11T17:53:12.235Z,18.90
2018-05-11T17:55:42.535Z,18.90
2018-05-11T17:58:12.784Z,18.80
2018-05-11T18:00:43.022Z,18.70
2018-05-11T18:03:13.328Z,18.80
2018-05-11T18:05:43.641Z,18.80
2018-05-11T18:08:14.577Z,18.60
2018-05-11T18:10:44.741Z,18.60
2018-05-11T18:13:14.951Z,18.60
2018-05-11T18:15:45.912Z,18.50
2018-05-11T18:18:16.132Z,18.50
2018-05-11T18:20:46.547Z,18.50
2018-05-11T18:23:16.732Z,18.40
2018-05-11T18:25:46.932Z,18.30
2018-05-11T18:28:17.237Z,18.30
2018-05-11T18:30:47.511Z,18.30
2018-05-11T18:33:17.846Z,18.30
2018-05-11T18:35:48.350Z,18.30
2018-05-11T18:38:18.493Z,18.30
2018-05-11T18:40:48.805Z,18.20
2018-05-11T18:43:29.451Z,18.20
2018-05-11T18:45:59.684Z,18.10
2018-05-11T18:48:29.925Z,18.00
2018-05-11T18:51:02.496Z,18.00
2018-05-11T18:53:33.055Z,18.00
2018-05-11T18:56:03.048Z,17.90
2018-05-11T18:58:33.317Z,17.80
2018-05-11T19:01:05.002Z,17.70
2018-05-11T19:03:35.218Z,17.70
2018-05-11T19:06:05.456Z,17.50
2018-05-11T19:08:35.670Z,17.50
2018-05-11T19:11:06.342Z,17.40
2018-05-11T19:13:36.504Z,17.30
2018-05-11T19:16:06.690Z,17.20
2018-05-11T19:18:37.014Z,17.10
2018-05-11T19:21:07.354Z,17.00
2018-05-11T19:23:37.624Z,16.90
2018-05-11T19:26:07.840Z,16.90
2018-05-11T19:28:38.107Z,16.80
2018-05-11T19:31:08.251Z,16.80
2018-05-11T19:33:38.460Z,16.80
2018-05-11T19:36:08.755Z,16.70
2018-05-11T19:38:39.225Z,16.70
2018-05-11T19:41:10.231Z,16.60
2018-05-11T19:43:40.584Z,16.60
2018-05-11T19:46:12.304Z,16.50
2018-05-11T19:48:42.448Z,16.50
2018-05-11T19:51:12.739Z,16.50
2018-05-11T19:53:47.842Z,16.50
2018-05-11T19:56:18.921Z,16.40
2018-05-11T19:58:49.452Z,16.40
2018-05-11T20:01:19.735Z,16.40
2018-05-11T20:03:49.949Z,16.40
2018-05-11T20:06:20.282Z,16.50
2018-05-11T20:08:51.325Z,16.40
2018-05-11T20:11:21.562Z,16.40
2018-05-11T20:13:52.492Z,16.40
2018-05-11T20:16:23.668Z,16.40
2018-05-11T20:18:53.842Z,16.40
2018-05-11T20:21:28.576Z,16.30
2018-05-11T20:23:59.065Z,16.30
2018-05-11T20:26:30.846Z,16.30
2018-05-11T20:29:03.875Z,16.30
2018-05-11T20:31:35.476Z,16.20
2018-05-11T20:34:07.164Z,16.10
2018-05-11T20:36:38.603Z,16.10
2018-05-11T20:39:09.821Z,16.20
2018-05-11T20:41:40.001Z,16.20
2018-05-11T20:44:10.183Z,16.10
2018-05-11T20:46:40.390Z,16.20
2018-05-11T20:49:10.630Z,16.10
2018-05-11T20:51:40.801Z,16.00
2018-05-11T20:54:11.765Z,15.90
2018-05-11T20:56:43.193Z,15.90
2018-05-11T20:59:13.545Z,15.80
2018-05-11T21:01:43.738Z,15.80
2018-05-11T21:04:13.973Z,16.00
2018-05-11T21:06:44.208Z,16.00
2018-05-11T21:09:26.716Z,16.10
2018-05-11T21:11:57.729Z,16.00
2018-05-11T21:14:28.183Z,16.00
2018-05-11T21:16:59.377Z,16.00
2018-05-11T21:19:29.577Z,16.00
2018-05-11T21:22:00.633Z,15.90
2018-05-11T21:24:31.174Z,15.90
2018-05-11T21:27:01.315Z,15.90
2018-05-11T21:29:31.503Z,15.90
2018-05-11T21:32:01.745Z,15.90
2018-05-11T21:34:31.972Z,15.90
2018-05-11T21:37:02.160Z,15.90
2018-05-11T21:39:32.345Z,15.90
2018-05-11T21:42:02.481Z,15.90
2018-05-11T21:44:32.767Z,15.90
2018-05-11T21:47:03.001Z,15.90
2018-05-11T21:49:33.874Z,15.90
2018-05-11T21:52:04.080Z,15.90
2018-05-11T21:54:34.313Z,15.90
2018-05-11T21:57:04.763Z,15.90
2018-05-11T21:59:34.913Z,15.80
2018-05-11T22:02:05.594Z,15.80
2018-05-11T22:04:35.761Z,15.80
2018-05-11T22:07:06.304Z,15.80
2018-05-11T22:09:36.419Z,15.80
2018-05-11T22:12:06.804Z,15.70
2018-05-11T22:14:39.505Z,15.70
2018-05-11T22:17:09.717Z,15.70
2018-05-11T22:19:39.888Z,15.70
2018-05-11T22:22:20.938Z,15.70
2018-05-11T22:24:51.116Z,15.70
2018-05-11T22:27:21.280Z,15.70
2018-05-11T22:30:08.953Z,15.70
2018-05-11T22:32:39.973Z,15.70
2018-05-11T22:35:10.209Z,15.70
2018-05-11T22:37:40.464Z,15.70
2018-05-11T22:40:16.294Z,15.70
2018-05-11T22:42:46.441Z,15.70
2018-05-11T22:45:16.701Z,15.70
2018-05-11T22:47:47.618Z,15.60
2018-05-11T22:50:18.702Z,15.60
2018-05-11T22:52:49.704Z,15.60
2018-05-11T22:55:21.189Z,15.50
2018-05-11T22:57:51.352Z,15.60
2018-05-11T23:00:24.045Z,15.60
2018-05-11T23:02:53.997Z,15.60
2018-05-11T23:05:24.224Z,15.60
2018-05-11T23:07:54.498Z,15.50
2018-05-11T23:12:59.984Z,15.50
2018-05-11T23:15:30.159Z,15.50
2018-05-11T23:18:05.201Z,15.50
2018-05-11T23:20:35.417Z,15.50
2018-05-11T23:23:06.368Z,15.50
2018-05-11T23:25:38.680Z,15.40
2018-05-11T23:28:08.837Z,15.40
2018-05-11T23:30:39.000Z,15.30
2018-05-11T23:33:09.226Z,15.30
2018-05-11T23:35:39.428Z,15.20
2018-05-11T23:38:09.692Z,15.20
2018-05-11T23:40:39.901Z,15.20
2018-05-11T23:43:10.113Z,15.20
2018-05-11T23:48:35.827Z,15.10
2018-05-11T23:51:06.930Z,15.10
2018-05-11T23:53:42.892Z,15.10
2018-05-11T23:56:13.197Z,15.00
2018-05-11T23:58:43.445Z,15.10
